sensor_id;sensor_type;location;lat;lon;timestamp;P1;durP1;ratioP1;P2;durP2;ratioP2
11034;SDS011;5571;48.110;-1.706;2022-08-06T00:00:44;4.85;;;1.40;;
11034;SDS011;5571;48.110;-1.706;2022-08-06T00:03:09;3.23;;;1.50;;
11034;SDS011;5571;48.110;-1.706;2022-08-06T00:05:34;3.17;;;1.37;;
11034;SDS011;5571;48.110;-1.706;2022-08-06T00:08:00;3.60;;;1.33;;
11034;SDS011;5571;48.110;-1.706;2022-08-06T00:10:26;2.50;;;1.13;;
11034;SDS011;5571;48.110;-1.706;2022-08-06T00:12:52;4.27;;;1.73;;
11034;SDS011;5571;48.110;-1.706;2022-08-06T00:15:17;4.35;;;1.33;;
11034;SDS011;5571;48.110;-1.706;2022-08-06T00:17:44;2.70;;;1.07;;
11034;SDS011;5571;48.110;-1.706;2022-08-06T00:20:11;4.47;;;1.40;;
11034;SDS011;5571;48.110;-1.706;2022-08-06T00:22:37;3.23;;;1.37;;
11034;SDS011;5571;48.110;-1.706;2022-08-06T00:25:03;4.47;;;1.33;;
11034;SDS011;5571;48.110;-1.706;2022-08-06T00:27:29;4.90;;;1.50;;
11034;SDS011;5571;48.110;-1.706;2022-08-06T00:29:54;3.27;;;0.90;;
11034;SDS011;5571;48.110;-1.706;2022-08-06T00:32:19;2.23;;;1.27;;
11034;SDS011;5571;48.110;-1.706;2022-08-06T00:34:45;2.63;;;1.13;;
11034;SDS011;5571;48.110;-1.706;2022-08-06T00:37:10;10.73;;;1.40;;
11034;SDS011;5571;48.110;-1.706;2022-08-06T00:39:36;7.50;;;1.40;;
11034;SDS011;5571;48.110;-1.706;2022-08-06T00:42:01;2.23;;;0.93;;
11034;SDS011;5571;48.110;-1.706;2022-08-06T00:44:26;5.10;;;1.37;;
11034;SDS011;5571;48.110;-1.706;2022-08-06T00:46:52;2.63;;;1.13;;
11034;SDS011;5571;48.110;-1.706;2022-08-06T00:49:18;2.70;;;1.30;;
11034;SDS011;5571;48.110;-1.706;2022-08-06T00:51:44;1.83;;;1.00;;
11034;SDS011;5571;48.110;-1.706;2022-08-06T00:54:09;4.33;;;1.30;;
11034;SDS011;5571;48.110;-1.706;2022-08-06T00:56:35;4.43;;;1.60;;
11034;SDS011;5571;48.110;-1.706;2022-08-06T00:59:01;2.63;;;1.10;;
11034;SDS011;5571;48.110;-1.706;2022-08-06T01:01:26;2.53;;;1.27;;
11034;SDS011;5571;48.110;-1.706;2022-08-06T01:03:51;2.63;;;1.27;;
11034;SDS011;5571;48.110;-1.706;2022-08-06T01:06:17;3.53;;;1.10;;
11034;SDS011;5571;48.110;-1.706;2022-08-06T01:08:42;3.33;;;1.60;;
11034;SDS011;5571;48.110;-1.706;2022-08-06T01:11:08;3.23;;;1.20;;
11034;SDS011;5571;48.110;-1.706;2022-08-06T01:13:33;4.87;;;1.50;;
11034;SDS011;5571;48.110;-1.706;2022-08-06T01:16:05;3.33;;;1.27;;
11034;SDS011;5571;48.110;-1.706;2022-08-06T01:18:40;3.30;;;1.60;;
11034;SDS011;5571;48.110;-1.706;2022-08-06T01:21:18;3.93;;;1.33;;
11034;SDS011;5571;48.110;-1.706;2022-08-06T01:26:40;6.57;;;1.47;;
11034;SDS011;5571;48.110;-1.706;2022-08-06T01:29:25;2.47;;;1.30;;
11034;SDS011;5571;48.110;-1.706;2022-08-06T01:34:26;5.17;;;1.40;;
11034;SDS011;5571;48.110;-1.706;2022-08-06T01:37:03;1.53;;;1.00;;
11034;SDS011;5571;48.110;-1.706;2022-08-06T01:39:43;7.93;;;1.57;;
11034;SDS011;5571;48.110;-1.706;2022-08-06T01:42:11;6.23;;;1.40;;
11034;SDS011;5571;48.110;-1.706;2022-08-06T01:44:39;2.03;;;1.20;;
11034;SDS011;5571;48.110;-1.706;2022-08-06T01:47:08;3.90;;;1.20;;
11034;SDS011;5571;48.110;-1.706;2022-08-06T01:49:36;3.17;;;1.23;;
11034;SDS011;5571;48.110;-1.706;2022-08-06T01:52:04;5.00;;;1.50;;
11034;SDS011;5571;48.110;-1.706;2022-08-06T01:54:34;3.23;;;1.23;;
11034;SDS011;5571;48.110;-1.706;2022-08-06T01:57:05;6.10;;;1.23;;
11034;SDS011;5571;48.110;-1.706;2022-08-06T01:59:33;4.17;;;1.47;;
11034;SDS011;5571;48.110;-1.706;2022-08-06T02:02:03;6.23;;;1.60;;
11034;SDS011;5571;48.110;-1.706;2022-08-06T02:04:33;3.83;;;1.20;;
11034;SDS011;5571;48.110;-1.706;2022-08-06T02:07:05;4.93;;;1.80;;
11034;SDS011;5571;48.110;-1.706;2022-08-06T02:09:33;3.03;;;1.43;;
11034;SDS011;5571;48.110;-1.706;2022-08-06T02:12:01;3.17;;;1.20;;
11034;SDS011;5571;48.110;-1.706;2022-08-06T02:14:29;3.50;;;1.30;;
11034;SDS011;5571;48.110;-1.706;2022-08-06T02:16:57;5.40;;;1.53;;
11034;SDS011;5571;48.110;-1.706;2022-08-06T02:19:26;2.33;;;1.07;;
11034;SDS011;5571;48.110;-1.706;2022-08-06T02:21:55;3.63;;;1.23;;
11034;SDS011;5571;48.110;-1.706;2022-08-06T02:24:24;2.70;;;1.20;;
11034;SDS011;5571;48.110;-1.706;2022-08-06T02:26:52;2.97;;;1.30;;
11034;SDS011;5571;48.110;-1.706;2022-08-06T02:29:18;1.57;;;1.17;;
11034;SDS011;5571;48.110;-1.706;2022-08-06T02:31:46;2.33;;;1.20;;
11034;SDS011;5571;48.110;-1.706;2022-08-06T02:34:12;5.50;;;1.43;;
11034;SDS011;5571;48.110;-1.706;2022-08-06T02:36:44;3.37;;;1.30;;
11034;SDS011;5571;48.110;-1.706;2022-08-06T02:50:32;1.60;;;1.20;;
11034;SDS011;5571;48.110;-1.706;2022-08-06T02:53:01;4.00;;;1.47;;
11034;SDS011;5571;48.110;-1.706;2022-08-06T02:55:30;2.80;;;1.03;;
11034;SDS011;5571;48.110;-1.706;2022-08-06T02:58:04;3.43;;;1.33;;
11034;SDS011;5571;48.110;-1.706;2022-08-06T03:00:40;1.90;;;0.97;;
11034;SDS011;5571;48.110;-1.706;2022-08-06T03:03:09;3.50;;;1.50;;
11034;SDS011;5571;48.110;-1.706;2022-08-06T03:05:38;3.67;;;1.17;;
11034;SDS011;5571;48.110;-1.706;2022-08-06T03:08:08;3.57;;;1.30;;
11034;SDS011;5571;48.110;-1.706;2022-08-06T03:10:38;2.37;;;1.30;;
11034;SDS011;5571;48.110;-1.706;2022-08-06T03:13:05;3.07;;;1.10;;
11034;SDS011;5571;48.110;-1.706;2022-08-06T03:15:32;6.13;;;1.40;;
11034;SDS011;5571;48.110;-1.706;2022-08-06T03:18:00;3.20;;;1.30;;
11034;SDS011;5571;48.110;-1.706;2022-08-06T03:20:27;3.67;;;1.50;;
11034;SDS011;5571;48.110;-1.706;2022-08-06T03:22:56;3.07;;;1.43;;
11034;SDS011;5571;48.110;-1.706;2022-08-06T03:25:24;2.17;;;1.10;;
11034;SDS011;5571;48.110;-1.706;2022-08-06T03:27:52;4.67;;;1.57;;
11034;SDS011;5571;48.110;-1.706;2022-08-06T03:30:18;4.53;;;1.53;;
11034;SDS011;5571;48.110;-1.706;2022-08-06T03:32:45;6.13;;;1.77;;
11034;SDS011;5571;48.110;-1.706;2022-08-06T03:35:12;4.20;;;1.40;;
11034;SDS011;5571;48.110;-1.706;2022-08-06T03:37:39;5.37;;;1.40;;
11034;SDS011;5571;48.110;-1.706;2022-08-06T03:40:07;4.27;;;1.30;;
11034;SDS011;5571;48.110;-1.706;2022-08-06T03:42:34;3.83;;;1.37;;
11034;SDS011;5571;48.110;-1.706;2022-08-06T03:45:00;1.77;;;1.20;;
11034;SDS011;5571;48.110;-1.706;2022-08-06T03:47:27;2.87;;;1.17;;
11034;SDS011;5571;48.110;-1.706;2022-08-06T03:52:32;3.87;;;1.50;;
11034;SDS011;5571;48.110;-1.706;2022-08-06T03:55:03;3.33;;;1.30;;
11034;SDS011;5571;48.110;-1.706;2022-08-06T03:57:32;6.00;;;1.50;;
11034;SDS011;5571;48.110;-1.706;2022-08-06T04:00:00;3.17;;;1.57;;
11034;SDS011;5571;48.110;-1.706;2022-08-06T04:02:27;5.73;;;1.17;;
11034;SDS011;5571;48.110;-1.706;2022-08-06T04:04:55;3.23;;;1.60;;
11034;SDS011;5571;48.110;-1.706;2022-08-06T04:07:20;3.70;;;1.57;;
11034;SDS011;5571;48.110;-1.706;2022-08-06T04:09:46;5.33;;;1.30;;
11034;SDS011;5571;48.110;-1.706;2022-08-06T04:12:12;4.27;;;1.50;;
11034;SDS011;5571;48.110;-1.706;2022-08-06T04:14:39;2.77;;;1.40;;
11034;SDS011;5571;48.110;-1.706;2022-08-06T04:17:04;4.90;;;1.57;;
11034;SDS011;5571;48.110;-1.706;2022-08-06T04:19:31;5.17;;;1.50;;
11034;SDS011;5571;48.110;-1.706;2022-08-06T04:21:58;8.10;;;1.53;;
11034;SDS011;5571;48.110;-1.706;2022-08-06T04:24:24;1.70;;;1.17;;
11034;SDS011;5571;48.110;-1.706;2022-08-06T04:26:51;4.23;;;2.10;;
11034;SDS011;5571;48.110;-1.706;2022-08-06T04:29:18;5.63;;;1.70;;
11034;SDS011;5571;48.110;-1.706;2022-08-06T04:31:46;3.13;;;1.20;;
11034;SDS011;5571;48.110;-1.706;2022-08-06T04:34:15;2.47;;;1.30;;
11034;SDS011;5571;48.110;-1.706;2022-08-06T04:36:46;2.97;;;1.33;;
11034;SDS011;5571;48.110;-1.706;2022-08-06T04:39:12;3.90;;;1.10;;
11034;SDS011;5571;48.110;-1.706;2022-08-06T04:41:39;5.67;;;1.60;;
11034;SDS011;5571;48.110;-1.706;2022-08-06T04:44:05;3.90;;;1.40;;
11034;SDS011;5571;48.110;-1.706;2022-08-06T04:46:30;5.43;;;1.80;;
11034;SDS011;5571;48.110;-1.706;2022-08-06T04:48:58;7.60;;;1.60;;
11034;SDS011;5571;48.110;-1.706;2022-08-06T04:51:23;5.03;;;1.53;;
11034;SDS011;5571;48.110;-1.706;2022-08-06T04:53:49;3.90;;;1.33;;
11034;SDS011;5571;48.110;-1.706;2022-08-06T04:56:14;5.37;;;2.00;;
11034;SDS011;5571;48.110;-1.706;2022-08-06T04:58:39;4.67;;;1.73;;
11034;SDS011;5571;48.110;-1.706;2022-08-06T05:01:05;2.87;;;1.60;;
11034;SDS011;5571;48.110;-1.706;2022-08-06T05:03:30;5.43;;;1.70;;
11034;SDS011;5571;48.110;-1.706;2022-08-06T05:06:08;5.43;;;1.50;;
11034;SDS011;5571;48.110;-1.706;2022-08-06T05:08:38;8.63;;;1.70;;
11034;SDS011;5571;48.110;-1.706;2022-08-06T05:11:16;10.53;;;1.87;;
11034;SDS011;5571;48.110;-1.706;2022-08-06T05:13:47;5.97;;;1.80;;
11034;SDS011;5571;48.110;-1.706;2022-08-06T05:16:17;4.73;;;1.60;;
11034;SDS011;5571;48.110;-1.706;2022-08-06T05:18:55;8.50;;;1.80;;
11034;SDS011;5571;48.110;-1.706;2022-08-06T05:21:27;4.63;;;1.77;;
11034;SDS011;5571;48.110;-1.706;2022-08-06T05:23:55;7.80;;;1.53;;
11034;SDS011;5571;48.110;-1.706;2022-08-06T05:26:22;3.57;;;1.83;;
11034;SDS011;5571;48.110;-1.706;2022-08-06T05:28:48;5.40;;;2.00;;
11034;SDS011;5571;48.110;-1.706;2022-08-06T05:31:13;6.97;;;2.00;;
11034;SDS011;5571;48.110;-1.706;2022-08-06T05:33:39;8.17;;;1.80;;
11034;SDS011;5571;48.110;-1.706;2022-08-06T05:36:06;7.27;;;1.90;;
11034;SDS011;5571;48.110;-1.706;2022-08-06T05:38:35;16.37;;;2.13;;
11034;SDS011;5571;48.110;-1.706;2022-08-06T05:41:06;9.43;;;2.17;;
11034;SDS011;5571;48.110;-1.706;2022-08-06T05:43:35;5.60;;;1.60;;
11034;SDS011;5571;48.110;-1.706;2022-08-06T05:46:04;7.70;;;1.70;;
11034;SDS011;5571;48.110;-1.706;2022-08-06T05:48:34;9.67;;;2.10;;
11034;SDS011;5571;48.110;-1.706;2022-08-06T05:51:10;5.43;;;1.60;;
11034;SDS011;5571;48.110;-1.706;2022-08-06T05:53:45;4.67;;;1.60;;
11034;SDS011;5571;48.110;-1.706;2022-08-06T05:56:16;6.07;;;1.90;;
11034;SDS011;5571;48.110;-1.706;2022-08-06T05:58:55;7.40;;;2.23;;
11034;SDS011;5571;48.110;-1.706;2022-08-06T06:01:24;7.03;;;1.80;;
11034;SDS011;5571;48.110;-1.706;2022-08-06T06:03:51;5.73;;;1.90;;
11034;SDS011;5571;48.110;-1.706;2022-08-06T06:06:19;5.00;;;1.40;;
11034;SDS011;5571;48.110;-1.706;2022-08-06T06:08:46;8.73;;;2.13;;
11034;SDS011;5571;48.110;-1.706;2022-08-06T06:11:12;6.00;;;2.10;;
11034;SDS011;5571;48.110;-1.706;2022-08-06T06:13:39;7.20;;;1.67;;
11034;SDS011;5571;48.110;-1.706;2022-08-06T06:19:34;6.60;;;1.73;;
11034;SDS011;5571;48.110;-1.706;2022-08-06T06:26:54;7.27;;;1.77;;
11034;SDS011;5571;48.110;-1.706;2022-08-06T06:32:32;8.30;;;2.00;;
11034;SDS011;5571;48.110;-1.706;2022-08-06T06:35:07;5.63;;;1.90;;
11034;SDS011;5571;48.110;-1.706;2022-08-06T06:43:09;6.83;;;1.70;;
11034;SDS011;5571;48.110;-1.706;2022-08-06T06:51:13;4.83;;;1.80;;
11034;SDS011;5571;48.110;-1.706;2022-08-06T06:53:57;8.30;;;1.80;;
11034;SDS011;5571;48.110;-1.706;2022-08-06T06:56:24;6.07;;;1.87;;
11034;SDS011;5571;48.110;-1.706;2022-08-06T06:58:56;9.47;;;2.00;;
11034;SDS011;5571;48.110;-1.706;2022-08-06T07:01:26;9.83;;;2.23;;
11034;SDS011;5571;48.110;-1.706;2022-08-06T07:03:57;8.20;;;2.30;;
11034;SDS011;5571;48.110;-1.706;2022-08-06T07:06:25;9.57;;;1.70;;
11034;SDS011;5571;48.110;-1.706;2022-08-06T07:08:52;5.33;;;1.73;;
11034;SDS011;5571;48.110;-1.706;2022-08-06T07:11:20;7.67;;;1.90;;
11034;SDS011;5571;48.110;-1.706;2022-08-06T07:13:48;6.80;;;2.13;;
11034;SDS011;5571;48.110;-1.706;2022-08-06T07:16:16;6.17;;;1.90;;
11034;SDS011;5571;48.110;-1.706;2022-08-06T07:18:47;11.53;;;2.00;;
11034;SDS011;5571;48.110;-1.706;2022-08-06T07:21:15;7.03;;;1.70;;
11034;SDS011;5571;48.110;-1.706;2022-08-06T07:23:47;9.00;;;2.03;;
11034;SDS011;5571;48.110;-1.706;2022-08-06T07:26:17;4.40;;;1.58;;
11034;SDS011;5571;48.110;-1.706;2022-08-06T07:28:43;3.33;;;1.58;;
11034;SDS011;5571;48.110;-1.706;2022-08-06T07:31:10;5.03;;;1.90;;
11034;SDS011;5571;48.110;-1.706;2022-08-06T07:33:40;12.18;;;2.03;;
11034;SDS011;5571;48.110;-1.706;2022-08-06T07:36:07;4.07;;;1.50;;
11034;SDS011;5571;48.110;-1.706;2022-08-06T07:38:33;5.30;;;1.50;;
11034;SDS011;5571;48.110;-1.706;2022-08-06T07:41:02;6.80;;;1.50;;
11034;SDS011;5571;48.110;-1.706;2022-08-06T07:43:32;5.13;;;1.60;;
11034;SDS011;5571;48.110;-1.706;2022-08-06T07:46:03;4.05;;;1.48;;
11034;SDS011;5571;48.110;-1.706;2022-08-06T07:48:31;4.55;;;1.42;;
11034;SDS011;5571;48.110;-1.706;2022-08-06T07:51:00;6.07;;;1.50;;
11034;SDS011;5571;48.110;-1.706;2022-08-06T07:53:27;3.10;;;1.17;;
11034;SDS011;5571;48.110;-1.706;2022-08-06T07:55:55;4.38;;;1.25;;
11034;SDS011;5571;48.110;-1.706;2022-08-06T07:58:21;2.58;;;1.08;;
11034;SDS011;5571;48.110;-1.706;2022-08-06T08:00:47;3.17;;;1.20;;
11034;SDS011;5571;48.110;-1.706;2022-08-06T08:03:13;5.80;;;1.10;;
11034;SDS011;5571;48.110;-1.706;2022-08-06T08:05:58;3.30;;;1.10;;
11034;SDS011;5571;48.110;-1.706;2022-08-06T08:11:19;2.50;;;0.88;;
11034;SDS011;5571;48.110;-1.706;2022-08-06T08:13:46;2.83;;;0.85;;
11034;SDS011;5571;48.110;-1.706;2022-08-06T08:16:12;6.68;;;1.30;;
11034;SDS011;5571;48.110;-1.706;2022-08-06T08:18:39;3.03;;;1.15;;
11034;SDS011;5571;48.110;-1.706;2022-08-06T08:21:05;4.70;;;1.30;;
11034;SDS011;5571;48.110;-1.706;2022-08-06T08:23:31;2.40;;;1.10;;
11034;SDS011;5571;48.110;-1.706;2022-08-06T08:25:58;3.28;;;1.50;;
11034;SDS011;5571;48.110;-1.706;2022-08-06T08:28:25;6.80;;;1.55;;
11034;SDS011;5571;48.110;-1.706;2022-08-06T08:30:50;5.32;;;0.95;;
11034;SDS011;5571;48.110;-1.706;2022-08-06T08:33:17;8.35;;;1.30;;
11034;SDS011;5571;48.110;-1.706;2022-08-06T08:35:43;6.20;;;1.48;;
11034;SDS011;5571;48.110;-1.706;2022-08-06T08:38:10;6.53;;;1.75;;
11034;SDS011;5571;48.110;-1.706;2022-08-06T08:40:36;2.88;;;1.20;;
11034;SDS011;5571;48.110;-1.706;2022-08-06T08:43:01;3.10;;;1.10;;
11034;SDS011;5571;48.110;-1.706;2022-08-06T08:45:28;2.95;;;1.00;;
11034;SDS011;5571;48.110;-1.706;2022-08-06T08:47:53;4.60;;;1.25;;
11034;SDS011;5571;48.110;-1.706;2022-08-06T08:50:23;3.40;;;1.00;;
11034;SDS011;5571;48.110;-1.706;2022-08-06T08:52:59;7.60;;;1.33;;
11034;SDS011;5571;48.110;-1.706;2022-08-06T08:55:27;4.28;;;1.40;;
11034;SDS011;5571;48.110;-1.706;2022-08-06T08:57:53;0.90;;;0.82;;
11034;SDS011;5571;48.110;-1.706;2022-08-06T09:00:20;24.27;;;2.00;;
11034;SDS011;5571;48.110;-1.706;2022-08-06T09:02:46;4.80;;;1.40;;
11034;SDS011;5571;48.110;-1.706;2022-08-06T09:05:12;8.02;;;1.30;;
11034;SDS011;5571;48.110;-1.706;2022-08-06T09:07:37;0.82;;;0.75;;
11034;SDS011;5571;48.110;-1.706;2022-08-06T09:10:05;13.27;;;1.77;;
11034;SDS011;5571;48.110;-1.706;2022-08-06T09:12:32;13.93;;;1.70;;
11034;SDS011;5571;48.110;-1.706;2022-08-06T09:14:58;6.03;;;1.50;;
11034;SDS011;5571;48.110;-1.706;2022-08-06T09:17:24;3.42;;;1.30;;
11034;SDS011;5571;48.110;-1.706;2022-08-06T09:19:50;3.88;;;0.77;;
11034;SDS011;5571;48.110;-1.706;2022-08-06T09:22:16;4.05;;;1.13;;
11034;SDS011;5571;48.110;-1.706;2022-08-06T09:24:42;3.85;;;0.98;;
11034;SDS011;5571;48.110;-1.706;2022-08-06T09:27:08;3.78;;;0.90;;
11034;SDS011;5571;48.110;-1.706;2022-08-06T09:29:35;1.75;;;1.05;;
11034;SDS011;5571;48.110;-1.706;2022-08-06T09:32:02;2.25;;;1.17;;
11034;SDS011;5571;48.110;-1.706;2022-08-06T09:34:37;2.67;;;1.30;;
11034;SDS011;5571;48.110;-1.706;2022-08-06T09:37:04;1.83;;;0.90;;
11034;SDS011;5571;48.110;-1.706;2022-08-06T09:39:34;2.03;;;1.00;;
11034;SDS011;5571;48.110;-1.706;2022-08-06T09:42:04;1.27;;;0.82;;
11034;SDS011;5571;48.110;-1.706;2022-08-06T09:44:31;2.70;;;0.95;;
11034;SDS011;5571;48.110;-1.706;2022-08-06T09:46:56;2.28;;;0.73;;
11034;SDS011;5571;48.110;-1.706;2022-08-06T09:49:22;4.50;;;0.93;;
11034;SDS011;5571;48.110;-1.706;2022-08-06T09:51:48;5.38;;;1.10;;
11034;SDS011;5571;48.110;-1.706;2022-08-06T09:54:14;4.30;;;1.00;;
11034;SDS011;5571;48.110;-1.706;2022-08-06T09:56:44;3.42;;;0.93;;
11034;SDS011;5571;48.110;-1.706;2022-08-06T09:59:10;5.18;;;0.60;;
11034;SDS011;5571;48.110;-1.706;2022-08-06T10:01:37;4.40;;;0.95;;
11034;SDS011;5571;48.110;-1.706;2022-08-06T10:04:05;5.10;;;0.95;;
11034;SDS011;5571;48.110;-1.706;2022-08-06T10:06:31;3.08;;;1.00;;
11034;SDS011;5571;48.110;-1.706;2022-08-06T10:09:10;3.13;;;1.00;;
11034;SDS011;5571;48.110;-1.706;2022-08-06T10:11:38;3.25;;;0.98;;
11034;SDS011;5571;48.110;-1.706;2022-08-06T10:14:04;1.33;;;0.80;;
11034;SDS011;5571;48.110;-1.706;2022-08-06T10:16:59;2.35;;;1.10;;
11034;SDS011;5571;48.110;-1.706;2022-08-06T10:19:28;2.08;;;0.80;;
11034;SDS011;5571;48.110;-1.706;2022-08-06T10:21:53;1.33;;;0.70;;
11034;SDS011;5571;48.110;-1.706;2022-08-06T10:24:18;4.13;;;1.23;;
11034;SDS011;5571;48.110;-1.706;2022-08-06T10:26:45;3.50;;;1.00;;
11034;SDS011;5571;48.110;-1.706;2022-08-06T10:29:11;7.85;;;1.48;;
11034;SDS011;5571;48.110;-1.706;2022-08-06T10:31:38;1.55;;;1.00;;
11034;SDS011;5571;48.110;-1.706;2022-08-06T10:34:11;4.10;;;1.10;;
11034;SDS011;5571;48.110;-1.706;2022-08-06T10:36:44;1.02;;;0.90;;
11034;SDS011;5571;48.110;-1.706;2022-08-06T10:39:15;3.47;;;0.98;;
11034;SDS011;5571;48.110;-1.706;2022-08-06T10:41:42;2.63;;;1.00;;
11034;SDS011;5571;48.110;-1.706;2022-08-06T10:44:08;1.70;;;0.90;;
11034;SDS011;5571;48.110;-1.706;2022-08-06T10:46:35;1.00;;;1.00;;
11034;SDS011;5571;48.110;-1.706;2022-08-06T10:49:00;5.28;;;1.17;;
11034;SDS011;5571;48.110;-1.706;2022-08-06T10:51:26;2.65;;;1.40;;
11034;SDS011;5571;48.110;-1.706;2022-08-06T10:53:52;2.28;;;0.88;;
11034;SDS011;5571;48.110;-1.706;2022-08-06T10:56:19;6.72;;;1.40;;
11034;SDS011;5571;48.110;-1.706;2022-08-06T10:58:44;2.30;;;1.10;;
11034;SDS011;5571;48.110;-1.706;2022-08-06T11:01:14;2.80;;;1.40;;
11034;SDS011;5571;48.110;-1.706;2022-08-06T11:06:41;2.28;;;0.68;;
11034;SDS011;5571;48.110;-1.706;2022-08-06T11:14:54;1.02;;;0.90;;
11034;SDS011;5571;48.110;-1.706;2022-08-06T11:17:20;2.42;;;1.10;;
11034;SDS011;5571;48.110;-1.706;2022-08-06T11:19:46;1.58;;;0.90;;
11034;SDS011;5571;48.110;-1.706;2022-08-06T11:25:08;3.25;;;1.13;;
11034;SDS011;5571;48.110;-1.706;2022-08-06T11:30:13;3.88;;;1.50;;
11034;SDS011;5571;48.110;-1.706;2022-08-06T11:32:42;3.95;;;1.20;;
11034;SDS011;5571;48.110;-1.706;2022-08-06T11:38:03;4.22;;;0.80;;
11034;SDS011;5571;48.110;-1.706;2022-08-06T11:54:18;9.25;;;1.30;;
11034;SDS011;5571;48.110;-1.706;2022-08-06T12:01:52;2.55;;;0.93;;
11034;SDS011;5571;48.110;-1.706;2022-08-06T12:09:44;1.60;;;0.77;;
11034;SDS011;5571;48.110;-1.706;2022-08-06T12:14:58;2.88;;;0.75;;
11034;SDS011;5571;48.110;-1.706;2022-08-06T12:17:27;1.33;;;0.70;;
11034;SDS011;5571;48.110;-1.706;2022-08-06T12:19:56;4.07;;;1.08;;
11034;SDS011;5571;48.110;-1.706;2022-08-06T12:22:26;0.80;;;0.80;;
11034;SDS011;5571;48.110;-1.706;2022-08-06T12:24:52;2.08;;;0.80;;
11034;SDS011;5571;48.110;-1.706;2022-08-06T12:27:22;1.40;;;0.65;;
11034;SDS011;5571;48.110;-1.706;2022-08-06T12:29:48;4.57;;;0.57;;
11034;SDS011;5571;48.110;-1.706;2022-08-06T12:34:47;1.92;;;0.95;;
11034;SDS011;5571;48.110;-1.706;2022-08-06T12:37:13;1.27;;;0.52;;
11034;SDS011;5571;48.110;-1.706;2022-08-06T12:39:39;3.58;;;1.00;;
11034;SDS011;5571;48.110;-1.706;2022-08-06T12:42:24;4.25;;;1.05;;
11034;SDS011;5571;48.110;-1.706;2022-08-06T12:44:51;2.40;;;0.80;;
11034;SDS011;5571;48.110;-1.706;2022-08-06T12:47:18;1.70;;;0.80;;
11034;SDS011;5571;48.110;-1.706;2022-08-06T12:49:44;1.85;;;0.65;;
11034;SDS011;5571;48.110;-1.706;2022-08-06T12:52:10;4.97;;;0.90;;
11034;SDS011;5571;48.110;-1.706;2022-08-06T12:54:42;3.20;;;0.82;;
11034;SDS011;5571;48.110;-1.706;2022-08-06T12:57:08;1.85;;;0.85;;
11034;SDS011;5571;48.110;-1.706;2022-08-06T12:59:43;7.50;;;1.00;;
11034;SDS011;5571;48.110;-1.706;2022-08-06T13:02:09;4.88;;;0.75;;
11034;SDS011;5571;48.110;-1.706;2022-08-06T13:04:35;5.20;;;1.13;;
11034;SDS011;5571;48.110;-1.706;2022-08-06T13:07:02;4.75;;;1.05;;
11034;SDS011;5571;48.110;-1.706;2022-08-06T13:09:29;3.70;;;1.00;;
11034;SDS011;5571;48.110;-1.706;2022-08-06T13:11:56;5.75;;;0.90;;
11034;SDS011;5571;48.110;-1.706;2022-08-06T13:14:21;1.92;;;0.65;;
11034;SDS011;5571;48.110;-1.706;2022-08-06T13:16:47;3.35;;;0.77;;
11034;SDS011;5571;48.110;-1.706;2022-08-06T13:19:14;4.28;;;0.52;;
11034;SDS011;5571;48.110;-1.706;2022-08-06T13:21:41;1.92;;;0.60;;
11034;SDS011;5571;48.110;-1.706;2022-08-06T13:24:09;8.95;;;1.60;;
11034;SDS011;5571;48.110;-1.706;2022-08-06T13:26:49;9.32;;;1.20;;
11034;SDS011;5571;48.110;-1.706;2022-08-06T13:29:34;3.00;;;1.10;;
11034;SDS011;5571;48.110;-1.706;2022-08-06T13:32:04;3.45;;;0.75;;
11034;SDS011;5571;48.110;-1.706;2022-08-06T13:34:47;1.85;;;0.73;;
11034;SDS011;5571;48.110;-1.706;2022-08-06T13:40:18;2.35;;;0.60;;
11034;SDS011;5571;48.110;-1.706;2022-08-06T13:42:50;3.88;;;0.75;;
11034;SDS011;5571;48.110;-1.706;2022-08-06T13:45:21;2.20;;;0.70;;
11034;SDS011;5571;48.110;-1.706;2022-08-06T13:48:04;4.40;;;0.73;;
11034;SDS011;5571;48.110;-1.706;2022-08-06T13:50:34;0.85;;;0.60;;
11034;SDS011;5571;48.110;-1.706;2022-08-06T13:53:01;5.28;;;0.88;;
11034;SDS011;5571;48.110;-1.706;2022-08-06T13:55:27;0.98;;;0.50;;
11034;SDS011;5571;48.110;-1.706;2022-08-06T13:57:54;0.52;;;0.47;;
11034;SDS011;5571;48.110;-1.706;2022-08-06T14:00:20;2.95;;;0.65;;
11034;SDS011;5571;48.110;-1.706;2022-08-06T14:02:45;4.30;;;1.20;;
11034;SDS011;5571;48.110;-1.706;2022-08-06T14:05:11;3.00;;;0.65;;
11034;SDS011;5571;48.110;-1.706;2022-08-06T14:07:37;2.72;;;0.80;;
11034;SDS011;5571;48.110;-1.706;2022-08-06T14:10:02;5.78;;;0.68;;
11034;SDS011;5571;48.110;-1.706;2022-08-06T14:12:28;2.20;;;0.80;;
11034;SDS011;5571;48.110;-1.706;2022-08-06T14:14:53;1.33;;;0.60;;
11034;SDS011;5571;48.110;-1.706;2022-08-06T14:17:19;2.83;;;0.95;;
11034;SDS011;5571;48.110;-1.706;2022-08-06T14:19:44;3.63;;;1.10;;
11034;SDS011;5571;48.110;-1.706;2022-08-06T14:22:10;3.92;;;0.88;;
11034;SDS011;5571;48.110;-1.706;2022-08-06T14:24:36;1.90;;;0.90;;
11034;SDS011;5571;48.110;-1.706;2022-08-06T14:27:01;2.28;;;0.77;;
11034;SDS011;5571;48.110;-1.706;2022-08-06T14:29:27;1.92;;;1.05;;
11034;SDS011;5571;48.110;-1.706;2022-08-06T14:31:52;3.95;;;0.95;;
11034;SDS011;5571;48.110;-1.706;2022-08-06T14:34:17;2.38;;;0.88;;
11034;SDS011;5571;48.110;-1.706;2022-08-06T14:36:43;2.95;;;0.90;;
11034;SDS011;5571;48.110;-1.706;2022-08-06T14:39:08;0.77;;;0.65;;
11034;SDS011;5571;48.110;-1.706;2022-08-06T14:41:40;1.50;;;0.93;;
11034;SDS011;5571;48.110;-1.706;2022-08-06T14:44:24;3.42;;;0.73;;
11034;SDS011;5571;48.110;-1.706;2022-08-06T14:47:08;2.88;;;0.60;;
11034;SDS011;5571;48.110;-1.706;2022-08-06T14:49:34;3.60;;;0.80;;
11034;SDS011;5571;48.110;-1.706;2022-08-06T14:52:00;0.80;;;0.70;;
11034;SDS011;5571;48.110;-1.706;2022-08-06T14:54:26;2.85;;;0.73;;
11034;SDS011;5571;48.110;-1.706;2022-08-06T14:56:52;3.30;;;0.63;;
11034;SDS011;5571;48.110;-1.706;2022-08-06T14:59:21;2.42;;;1.00;;
11034;SDS011;5571;48.110;-1.706;2022-08-06T15:01:47;2.80;;;0.95;;
11034;SDS011;5571;48.110;-1.706;2022-08-06T15:04:13;4.15;;;0.70;;
11034;SDS011;5571;48.110;-1.706;2022-08-06T15:06:38;2.75;;;0.68;;
11034;SDS011;5571;48.110;-1.706;2022-08-06T15:09:05;0.93;;;0.52;;
11034;SDS011;5571;48.110;-1.706;2022-08-06T15:11:31;2.63;;;0.73;;
11034;SDS011;5571;48.110;-1.706;2022-08-06T15:13:56;0.95;;;0.55;;
11034;SDS011;5571;48.110;-1.706;2022-08-06T15:16:22;1.80;;;1.08;;
11034;SDS011;5571;48.110;-1.706;2022-08-06T15:18:48;1.00;;;0.80;;
11034;SDS011;5571;48.110;-1.706;2022-08-06T15:21:13;2.25;;;0.80;;
11034;SDS011;5571;48.110;-1.706;2022-08-06T15:23:39;4.95;;;1.10;;
11034;SDS011;5571;48.110;-1.706;2022-08-06T15:26:04;4.20;;;1.00;;
11034;SDS011;5571;48.110;-1.706;2022-08-06T15:28:30;2.38;;;0.95;;
11034;SDS011;5571;48.110;-1.706;2022-08-06T15:30:56;2.38;;;0.80;;
11034;SDS011;5571;48.110;-1.706;2022-08-06T15:33:24;8.23;;;1.15;;
11034;SDS011;5571;48.110;-1.706;2022-08-06T15:35:50;5.60;;;1.00;;
11034;SDS011;5571;48.110;-1.706;2022-08-06T15:38:15;2.72;;;0.80;;
11034;SDS011;5571;48.110;-1.706;2022-08-06T15:40:41;2.15;;;0.70;;
11034;SDS011;5571;48.110;-1.706;2022-08-06T15:43:07;1.27;;;0.90;;
11034;SDS011;5571;48.110;-1.706;2022-08-06T15:45:32;1.42;;;0.68;;
11034;SDS011;5571;48.110;-1.706;2022-08-06T15:47:57;3.50;;;0.70;;
11034;SDS011;5571;48.110;-1.706;2022-08-06T15:50:24;2.53;;;0.98;;
11034;SDS011;5571;48.110;-1.706;2022-08-06T15:52:49;2.78;;;0.73;;
11034;SDS011;5571;48.110;-1.706;2022-08-06T15:55:15;2.35;;;0.80;;
11034;SDS011;5571;48.110;-1.706;2022-08-06T15:57:40;1.35;;;0.82;;
11034;SDS011;5571;48.110;-1.706;2022-08-06T16:00:06;1.10;;;0.80;;
11034;SDS011;5571;48.110;-1.706;2022-08-06T16:02:32;6.82;;;0.75;;
11034;SDS011;5571;48.110;-1.706;2022-08-06T16:04:57;1.23;;;0.60;;
11034;SDS011;5571;48.110;-1.706;2022-08-06T16:07:23;0.60;;;0.60;;
11034;SDS011;5571;48.110;-1.706;2022-08-06T16:09:48;2.83;;;0.80;;
11034;SDS011;5571;48.110;-1.706;2022-08-06T16:12:14;0.47;;;0.47;;
11034;SDS011;5571;48.110;-1.706;2022-08-06T16:14:39;0.57;;;0.57;;
11034;SDS011;5571;48.110;-1.706;2022-08-06T16:17:06;0.90;;;0.70;;
11034;SDS011;5571;48.110;-1.706;2022-08-06T16:19:31;2.45;;;0.70;;
11034;SDS011;5571;48.110;-1.706;2022-08-06T16:21:57;2.22;;;0.90;;
11034;SDS011;5571;48.110;-1.706;2022-08-06T16:24:22;2.15;;;0.80;;
11034;SDS011;5571;48.110;-1.706;2022-08-06T16:26:48;2.13;;;0.95;;